Time;durP1;ratioP1;P1;durP2;ratioP2;P2;SDS_P1;SDS_P2;PMS_P1;PMS_P2;Temp;Humidity;BMP_temperature;BMP_pressure;BME280_temperature;BME280_humidity;BME280_pressure;Samples;Min_cycle;Max_cycle;Signal;HPM_P1;HPM_P2
2022/11/20 00:01:18;;;;;;;;;;;-3275.70;79.40;;;;;;5070890;28;19916;-82
2022/11/20 00:03:43;;;;;;;;;;;-3275.80;79.50;;;;;;5090466;28;19980;-83
2022/11/20 00:06:10;;;;;;;;;;;-3275.70;79.50;;;;;;5075484;28;20023;-83
2022/11/20 00:08:36;;;;;;;;;;;-3275.70;79.50;;;;;;5089492;28;19920;-82
2022/11/20 00:11:05;;;;;;;;;;;-3275.60;79.90;;;;;;5084664;28;19912;-82
2022/11/20 00:13:31;;;;;;;;;;;-3275.80;79.70;;;;;;5089463;28;19970;-82
2022/11/20 00:15:58;;;;;;;;;;;-3275.80;79.80;;;;;;5086482;28;19913;-83
2022/11/20 00:18:23;;;;;;;;;;;-3275.80;80.00;;;;;;5086364;28;20004;-82
2022/11/20 00:20:49;;;;;;;;;;;-3275.90;80.00;;;;;;5090628;28;19944;-82
2022/11/20 00:23:14;;;;;;;;;;;-3275.90;80.00;;;;;;5075813;28;19973;-82
2022/11/20 00:25:40;;;;;;;;;;;-3275.90;80.10;;;;;;5091084;28;19958;-83
2022/11/20 00:28:05;;;;;;;;;;;-3275.80;80.10;;;;;;5090273;28;19908;-83
2022/11/20 00:30:31;;;;;;;;;;;-3276.00;80.30;;;;;;5078017;28;19920;-83
2022/11/20 00:32:57;;;;;;;;;;;-3276.00;80.20;;;;;;5095635;28;19916;-83
2022/11/20 00:35:22;;;;;;;;;;;-3276.00;80.20;;;;;;5085915;28;20234;-83
2022/11/20 00:37:47;;;;;;;;;;;-3276.20;80.20;;;;;;5090224;28;19916;-82
2022/11/20 00:40:13;;;;;;;;;;;-3276.40;80.00;;;;;;5080822;28;19911;-82
2022/11/20 00:42:38;;;;;;;;;;;-3276.50;80.40;;;;;;5096727;28;19924;-82
2022/11/20 00:45:04;;;;;;;;;;;-3276.50;80.10;;;;;;5089949;28;19920;-83
2022/11/20 00:47:30;;;;;;;;;;;-3276.60;79.90;;;;;;5094878;28;19912;-83
2022/11/20 00:49:55;;;;;;;;;;;-3276.60;79.80;;;;;;5076571;28;19985;-83
2022/11/20 00:52:21;;;;;;;;;;;-3276.50;79.70;;;;;;5100326;28;19920;-82
2022/11/20 00:54:46;;;;;;;;;;;-3276.60;80.10;;;;;;5082956;28;19999;-82
2022/11/20 00:57:11;;;;;;;;;;;-3276.60;80.00;;;;;;5094958;28;20301;-83
2022/11/20 00:59:37;;;;;;;;;;;-3276.60;79.40;;;;;;5066663;28;20285;-83
2022/11/20 01:02:02;;;;;;;;;;;-3276.50;79.40;;;;;;5072150;28;20276;-83
2022/11/20 01:04:28;;;;;;;;;;;-3276.50;79.60;;;;;;5094450;28;19916;-83
2022/11/20 01:06:53;;;;;;;;;;;-3276.40;80.10;;;;;;5095147;28;19908;-83
2022/11/20 01:09:19;;;;;;;;;;;-3276.40;80.30;;;;;;5092305;28;19918;-82
2022/11/20 01:11:45;;;;;;;;;;;-3276.50;80.10;;;;;;5085002;28;19923;-82
2022/11/20 01:14:12;;;;;;;;;;;-3276.50;80.00;;;;;;5087560;28;19968;-82
2022/11/20 01:16:39;;;;;;;;;;;-3276.50;80.20;;;;;;5087431;28;19919;-83
2022/11/20 01:19:06;;;;;;;;;;;-3276.40;80.00;;;;;;5078050;28;19976;-83
2022/11/20 01:21:32;;;;;;;;;;;-3276.40;80.00;;;;;;5102801;28;19912;-82
2022/11/20 01:23:58;;;;;;;;;;;-3276.20;80.50;;;;;;5103222;28;19916;-83
2022/11/20 01:26:26;;;;;;;;;;;-3276.40;80.90;;;;;;5075801;28;19941;-83
2022/11/20 01:28:51;;;;;;;;;;;-3276.50;80.80;;;;;;5096114;28;19912;-82
2022/11/20 01:31:18;;;;;;;;;;;-3276.60;80.30;;;;;;5098356;28;19991;-82
2022/11/20 01:33:44;;;;;;;;;;;-3276.60;80.30;;;;;;5084721;28;20486;-82
2022/11/20 01:36:09;;;;;;;;;;;-3276.60;80.50;;;;;;5095104;28;19926;-82
2022/11/20 01:38:35;;;;;;;;;;;-3276.50;80.40;;;;;;5075472;28;19939;-82
2022/11/20 01:41:00;;;;;;;;;;;-3276.50;80.80;;;;;;5096611;28;19913;-82
2022/11/20 01:43:26;;;;;;;;;;;-3276.50;80.60;;;;;;5096086;28;19916;-83
2022/11/20 01:45:59;;;;;;;;;;;-3276.20;80.80;;;;;;5082021;28;19916;-83
2022/11/20 01:48:28;;;;;;;;;;;-3276.20;81.50;;;;;;5074075;28;19920;-83
2022/11/20 01:50:54;;;;;;;;;;;-3276.20;81.70;;;;;;5089697;28;19951;-82
2022/11/20 01:53:24;;;;;;;;;;;-3276.20;81.80;;;;;;5079054;28;19931;-82
2022/11/20 01:55:52;;;;;;;;;;;-3276.20;81.70;;;;;;5097103;28;20426;-83
2022/11/20 01:58:20;;;;;;;;;;;-3276.20;81.40;;;;;;5097331;28;20031;-82
2022/11/20 02:00:45;;;;;;;;;;;-3276.20;81.50;;;;;;5066637;28;19913;-83
2022/11/20 02:03:12;;;;;;;;;;;-3276.20;81.60;;;;;;5098591;28;19923;-83
2022/11/20 02:05:53;;;;;;;;;;;-3276.20;81.80;;;;;;5115415;28;19995;-83
2022/11/20 02:08:19;;;;;;;;;;;-3276.40;81.80;;;;;;5098767;28;19966;-83
2022/11/20 02:10:44;;;;;;;;;;;-3276.50;82.00;;;;;;5081641;28;19963;-83
2022/11/20 02:15:54;;;;;;;;;;;-3276.60;81.70;;;;;;5082537;28;20419;-83
2022/11/20 02:18:20;;;;;;;;;;;-3276.70;81.50;;;;;;5073954;28;19927;-83
2022/11/20 02:20:47;;;;;;;;;;;0.00;81.90;;;;;;5074407;28;20366;-83
2022/11/20 02:23:16;;;;;;;;;;;0.00;81.40;;;;;;5097050;28;19912;-82
2022/11/20 02:25:42;;;;;;;;;;;0.30;81.20;;;;;;5066966;28;20380;-83
2022/11/20 02:28:08;;;;;;;;;;;0.20;80.90;;;;;;5078950;28;19920;-82
2022/11/20 02:30:33;;;;;;;;;;;0.20;80.80;;;;;;5078793;28;19919;-83
2022/11/20 02:32:59;;;;;;;;;;;0.30;80.90;;;;;;5092327;28;19924;-82
2022/11/20 02:35:24;;;;;;;;;;;0.10;80.50;;;;;;5072213;28;19920;-83
2022/11/20 02:37:52;;;;;;;;;;;0.10;80.70;;;;;;5077331;28;19924;-83
2022/11/20 02:40:18;;;;;;;;;;;0.00;80.80;;;;;;5089577;28;19948;-83
2022/11/20 02:42:43;;;;;;;;;;;0.00;81.50;;;;;;5091781;28;20353;-82
2022/11/20 02:45:09;;;;;;;;;;;0.00;82.10;;;;;;5084051;28;19912;-83
2022/11/20 02:47:35;;;;;;;;;;;0.00;82.20;;;;;;5089165;28;19913;-83
2022/11/20 02:50:00;;;;;;;;;;;0.10;82.20;;;;;;5071711;28;19919;-83
2022/11/20 02:52:26;;;;;;;;;;;0.10;81.90;;;;;;5080643;22;20390;-84
2022/11/20 02:54:51;;;;;;;;;;;0.10;81.50;;;;;;5029071;28;19917;-84
2022/11/20 02:57:17;;;;;;;;;;;0.00;81.60;;;;;;5030070;28;19909;-85
2022/11/20 02:59:42;;;;;;;;;;;0.10;82.20;;;;;;5046754;28;19996;-85
2022/11/20 03:02:08;;;;;;;;;;;0.20;82.10;;;;;;5029009;28;19916;-84
2022/11/20 03:04:33;;;;;;;;;;;0.20;82.50;;;;;;5034315;28;20371;-85
2022/11/20 03:06:59;;;;;;;;;;;0.30;82.20;;;;;;5028925;28;20402;-84
2022/11/20 03:09:24;;;;;;;;;;;0.30;82.50;;;;;;5030683;28;19944;-84
2022/11/20 03:11:50;;;;;;;;;;;0.30;82.00;;;;;;5038092;28;19898;-84
2022/11/20 03:14:15;;;;;;;;;;;0.30;82.00;;;;;;5028317;28;19970;-85
2022/11/20 03:16:40;;;;;;;;;;;0.40;82.50;;;;;;5022862;28;20307;-85
2022/11/20 03:19:06;;;;;;;;;;;0.50;82.30;;;;;;5029426;28;20043;-84
2022/11/20 03:21:35;;;;;;;;;;;0.60;81.90;;;;;;5026845;28;19917;-85
2022/11/20 03:24:01;;;;;;;;;;;0.70;81.70;;;;;;5045262;28;19920;-84
2022/11/20 03:26:27;;;;;;;;;;;0.80;81.60;;;;;;5043546;28;20380;-84
2022/11/20 03:28:53;;;;;;;;;;;0.80;81.30;;;;;;5039744;28;19913;-84
2022/11/20 03:31:21;;;;;;;;;;;0.90;81.30;;;;;;5025866;28;19944;-85
2022/11/20 03:33:47;;;;;;;;;;;0.90;80.90;;;;;;5028297;28;19931;-85
2022/11/20 03:36:14;;;;;;;;;;;0.90;81.70;;;;;;5029586;28;19945;-84
2022/11/20 03:38:40;;;;;;;;;;;1.00;81.90;;;;;;5028314;28;19975;-85
2022/11/20 03:41:06;;;;;;;;;;;1.00;81.70;;;;;;5028581;28;20357;-84
2022/11/20 03:43:32;;;;;;;;;;;1.20;80.80;;;;;;5039572;28;20028;-85
2022/11/20 03:45:58;;;;;;;;;;;1.20;81.10;;;;;;5029168;28;20438;-85
2022/11/20 03:48:23;;;;;;;;;;;1.20;80.60;;;;;;5028373;28;19963;-84
2022/11/20 03:50:49;;;;;;;;;;;1.10;80.90;;;;;;5029891;28;20016;-84
2022/11/20 03:53:15;;;;;;;;;;;1.00;80.80;;;;;;5032541;28;20334;-85
2022/11/20 03:55:40;;;;;;;;;;;1.00;81.40;;;;;;5029951;28;19960;-85
2022/11/20 03:58:06;;;;;;;;;;;0.90;81.40;;;;;;5033874;28;19944;-84
2022/11/20 04:00:31;;;;;;;;;;;0.80;81.90;;;;;;5044728;28;20291;-83
2022/11/20 04:03:00;;;;;;;;;;;0.80;82.00;;;;;;5033673;28;19913;-85
2022/11/20 04:05:26;;;;;;;;;;;0.70;82.00;;;;;;5044656;28;19950;-85
2022/11/20 04:07:51;;;;;;;;;;;0.70;82.50;;;;;;5043649;28;19913;-85
2022/11/20 04:10:16;;;;;;;;;;;0.70;82.80;;;;;;5026726;28;19917;-85
2022/11/20 04:12:42;;;;;;;;;;;0.80;82.60;;;;;;5042257;28;19986;-85
2022/11/20 04:15:08;;;;;;;;;;;0.80;82.50;;;;;;5031722;28;19924;-85
2022/11/20 04:17:33;;;;;;;;;;;0.70;82.10;;;;;;5033077;28;19944;-82
2022/11/20 04:19:58;;;;;;;;;;;0.70;82.40;;;;;;5059994;28;19972;-84
2022/11/20 04:22:24;;;;;;;;;;;0.70;82.50;;;;;;5040433;28;19921;-84
2022/11/20 04:24:49;;;;;;;;;;;0.70;82.40;;;;;;5028256;28;20293;-84
2022/11/20 04:27:15;;;;;;;;;;;0.60;82.40;;;;;;5027024;28;19971;-83
2022/11/20 04:29:40;;;;;;;;;;;0.60;82.60;;;;;;5026781;28;19917;-83
2022/11/20 04:32:06;;;;;;;;;;;0.60;82.60;;;;;;5027996;28;19913;-84
2022/11/20 04:34:31;;;;;;;;;;;0.60;82.70;;;;;;5024936;28;19917;-83
2022/11/20 04:36:57;;;;;;;;;;;0.60;83.10;;;;;;5024007;28;19920;-84
2022/11/20 04:39:22;;;;;;;;;;;0.60;83.00;;;;;;5019250;28;19920;-84
2022/11/20 04:41:48;;;;;;;;;;;0.60;83.40;;;;;;5024323;28;19913;-84
2022/11/20 04:44:13;;;;;;;;;;;0.70;83.50;;;;;;5030318;28;19963;-85
2022/11/20 04:46:40;;;;;;;;;;;0.70;83.40;;;;;;5026380;28;19917;-85
2022/11/20 04:49:05;;;;;;;;;;;0.80;83.30;;;;;;5023547;28;19921;-84
2022/11/20 04:51:31;;;;;;;;;;;0.80;83.20;;;;;;5024697;28;19920;-85
2022/11/20 04:53:56;;;;;;;;;;;0.80;83.00;;;;;;5046416;28;19941;-84
2022/11/20 04:56:22;;;;;;;;;;;0.80;83.20;;;;;;5046868;28;19957;-84
2022/11/20 04:58:47;;;;;;;;;;;0.90;83.10;;;;;;5047082;28;19913;-84
2022/11/20 05:01:18;;;;;;;;;;;0.90;82.70;;;;;;5039298;28;19963;-84
2022/11/20 05:03:43;;;;;;;;;;;0.80;82.60;;;;;;5030612;28;20493;-85
2022/11/20 05:06:10;;;;;;;;;;;0.80;82.90;;;;;;5021607;28;19914;-84
2022/11/20 05:08:35;;;;;;;;;;;0.90;83.00;;;;;;5033569;28;19962;-84
2022/11/20 05:11:02;;;;;;;;;;;0.80;82.90;;;;;;5032675;28;20008;-84
2022/11/20 05:13:27;;;;;;;;;;;0.80;82.70;;;;;;5017754;28;19918;-85
2022/11/20 05:15:53;;;;;;;;;;;0.70;82.80;;;;;;5030107;28;20370;-85
2022/11/20 05:18:18;;;;;;;;;;;0.70;83.10;;;;;;5030521;28;20055;-85
2022/11/20 05:20:44;;;;;;;;;;;0.80;83.30;;;;;;5031272;28;20433;-85
2022/11/20 05:23:09;;;;;;;;;;;0.80;83.80;;;;;;5021623;28;19921;-85
2022/11/20 05:25:34;;;;;;;;;;;0.90;83.60;;;;;;5021579;28;19914;-84
2022/11/20 05:28:00;;;;;;;;;;;1.00;83.40;;;;;;5038570;28;20430;-84
2022/11/20 05:30:25;;;;;;;;;;;1.10;83.30;;;;;;5026409;28;20009;-85
2022/11/20 05:32:51;;;;;;;;;;;1.10;83.20;;;;;;5032101;28;19917;-85
2022/11/20 05:35:16;;;;;;;;;;;1.10;82.80;;;;;;5036202;28;20302;-85
2022/11/20 05:37:42;;;;;;;;;;;1.10;82.90;;;;;;5026963;28;20326;-85
2022/11/20 05:40:07;;;;;;;;;;;1.00;83.10;;;;;;5025989;28;20366;-85
2022/11/20 05:42:33;;;;;;;;;;;1.00;83.30;;;;;;5048946;28;20394;-85
2022/11/20 05:44:59;;;;;;;;;;;0.90;83.30;;;;;;5028558;28;19919;-85
2022/11/20 05:47:25;;;;;;;;;;;0.80;83.30;;;;;;5022137;28;19990;-85
2022/11/20 05:49:51;;;;;;;;;;;0.70;83.50;;;;;;5027543;28;19924;-83
2022/11/20 05:52:16;;;;;;;;;;;0.70;83.70;;;;;;5031585;28;19917;-85
2022/11/20 05:54:42;;;;;;;;;;;0.60;83.70;;;;;;5024497;28;20394;-84
2022/11/20 05:57:07;;;;;;;;;;;0.70;83.70;;;;;;5031275;28;19913;-85
2022/11/20 05:59:32;;;;;;;;;;;0.60;83.80;;;;;;5031450;28;20309;-85
2022/11/20 06:01:58;;;;;;;;;;;0.60;84.20;;;;;;5020856;28;19921;-85
2022/11/20 06:04:23;;;;;;;;;;;0.60;84.10;;;;;;5023536;28;19982;-85
2022/11/20 06:06:49;;;;;;;;;;;0.60;84.00;;;;;;5032258;28;19909;-85
2022/11/20 06:09:14;;;;;;;;;;;0.50;84.30;;;;;;5028471;28;19917;-85
2022/11/20 06:11:40;;;;;;;;;;;0.50;84.20;;;;;;5042027;28;19909;-84
2022/11/20 06:14:05;;;;;;;;;;;0.50;84.30;;;;;;5029696;28;19988;-86
2022/11/20 06:16:31;;;;;;;;;;;0.50;84.30;;;;;;5031136;28;19913;-85
2022/11/20 06:18:56;;;;;;;;;;;0.50;84.30;;;;;;5029182;28;19913;-84
2022/11/20 06:21:22;;;;;;;;;;;0.50;84.30;;;;;;5018290;28;19909;-85
2022/11/20 06:23:48;;;;;;;;;;;0.50;84.10;;;;;;5024215;28;20343;-85
2022/11/20 06:26:15;;;;;;;;;;;0.40;84.20;;;;;;5036065;28;20011;-85
2022/11/20 06:28:40;;;;;;;;;;;0.40;84.50;;;;;;5025612;28;20000;-86
2022/11/20 06:31:06;;;;;;;;;;;0.50;84.30;;;;;;5030335;28;19928;-83
2022/11/20 06:33:31;;;;;;;;;;;0.40;84.10;;;;;;5029181;28;19976;-83
2022/11/20 06:35:58;;;;;;;;;;;0.40;84.30;;;;;;5041028;28;19917;-82
2022/11/20 06:38:24;;;;;;;;;;;0.40;84.10;;;;;;5030553;28;19917;-83
2022/11/20 06:40:49;;;;;;;;;;;0.50;84.00;;;;;;5021994;28;20286;-84
2022/11/20 06:43:15;;;;;;;;;;;0.40;83.90;;;;;;5028561;28;20379;-85
2022/11/20 06:45:40;;;;;;;;;;;0.30;84.20;;;;;;5015292;28;20137;-84
2022/11/20 06:48:06;;;;;;;;;;;0.40;84.10;;;;;;5026685;28;19924;-84
2022/11/20 06:50:31;;;;;;;;;;;0.40;83.80;;;;;;5021462;28;20485;-83
2022/11/20 06:52:59;;;;;;;;;;;0.30;83.70;;;;;;5028678;28;21510;-84
2022/11/20 06:55:25;;;;;;;;;;;0.30;83.70;;;;;;5029970;28;20455;-84
2022/11/20 06:57:50;;;;;;;;;;;0.30;83.60;;;;;;5031690;28;19913;-84
2022/11/20 07:00:16;;;;;;;;;;;0.20;83.40;;;;;;5043608;28;19996;-84
2022/11/20 07:02:41;;;;;;;;;;;0.10;83.80;;;;;;5034621;28;19913;-84
2022/11/20 07:05:07;;;;;;;;;;;0.10;83.70;;;;;;5030315;28;20310;-84
2022/11/20 07:07:32;;;;;;;;;;;0.20;83.50;;;;;;5044618;28;19914;-84
2022/11/20 07:09:57;;;;;;;;;;;0.10;83.50;;;;;;5037716;28;19914;-84
2022/11/20 07:12:23;;;;;;;;;;;0.00;83.50;;;;;;5029191;28;19917;-84
2022/11/20 07:14:48;;;;;;;;;;;0.00;84.00;;;;;;5025835;28;20341;-82
2022/11/20 07:17:14;;;;;;;;;;;0.00;84.20;;;;;;5050548;28;19920;-84
2022/11/20 07:19:39;;;;;;;;;;;0.10;84.40;;;;;;5029654;28;19913;-84
2022/11/20 07:22:04;;;;;;;;;;;0.10;84.30;;;;;;5028588;28;19917;-84
2022/11/20 07:24:30;;;;;;;;;;;0.10;84.10;;;;;;5030465;28;19913;-84
2022/11/20 07:26:55;;;;;;;;;;;0.10;84.10;;;;;;5027549;28;19959;-85
2022/11/20 07:29:21;;;;;;;;;;;0.00;84.20;;;;;;5037559;28;19975;-83
2022/11/20 07:31:46;;;;;;;;;;;0.10;84.60;;;;;;5027492;28;20405;-85
2022/11/20 07:34:12;;;;;;;;;;;0.30;84.30;;;;;;5027281;28;20509;-85
2022/11/20 07:36:37;;;;;;;;;;;0.20;84.20;;;;;;5040853;28;19951;-85
2022/11/20 07:39:03;;;;;;;;;;;0.30;83.90;;;;;;5044206;28;19967;-84
2022/11/20 07:41:28;;;;;;;;;;;0.30;84.10;;;;;;5026638;28;19924;-85
2022/11/20 07:43:54;;;;;;;;;;;0.30;84.00;;;;;;5022034;28;20298;-84
2022/11/20 07:46:19;;;;;;;;;;;0.20;83.70;;;;;;5028263;28;19970;-88
2022/11/20 07:48:47;;;;;;;;;;;0.30;83.90;;;;;;5027898;28;19920;-87
2022/11/20 07:51:13;;;;;;;;;;;0.20;83.90;;;;;;5035885;28;19913;-87
2022/11/20 07:53:38;;;;;;;;;;;0.20;84.20;;;;;;5037741;28;20401;-86
2022/11/20 07:56:04;;;;;;;;;;;0.20;84.40;;;;;;5023340;28;19917;-87
2022/11/20 07:58:32;;;;;;;;;;;0.20;84.80;;;;;;5025208;28;19928;-87
2022/11/20 08:00:58;;;;;;;;;;;0.30;84.40;;;;;;5029739;28;19921;-87
2022/11/20 08:03:23;;;;;;;;;;;0.30;84.70;;;;;;5027386;28;19924;-86
2022/11/20 08:05:49;;;;;;;;;;;0.40;84.90;;;;;;5027562;28;19924;-86
2022/11/20 08:08:15;;;;;;;;;;;0.30;84.60;;;;;;5023712;28;19921;-88
2022/11/20 08:10:40;;;;;;;;;;;0.40;84.50;;;;;;5026071;28;19920;-87
2022/11/20 08:15:53;;;;;;;;;;;0.30;84.40;;;;;;5026477;28;19920;-88
2022/11/20 08:18:18;;;;;;;;;;;0.40;84.70;;;;;;5038177;28;19932;-87
2022/11/20 08:23:54;;;;;;;;;;;0.40;85.00;;;;;;5026710;28;19921;-88
2022/11/20 08:26:20;;;;;;;;;;;0.40;85.20;;;;;;5044341;28;19913;-89
2022/11/20 08:28:46;;;;;;;;;;;0.50;84.90;;;;;;5025348;28;20296;-87
2022/11/20 08:31:56;;;;;;;;;;;0.50;84.90;;;;;;5030139;28;19913;-88
2022/11/20 08:34:15;;;;;;;;;;;0.50;84.80;;;;;;5022728;28;19921;-87
2022/11/20 08:36:40;;;;;;;;;;;0.50;84.90;;;;;;5031403;28;20023;-89
2022/11/20 08:39:16;;;;;;;;;;;0.40;85.10;;;;;;5034240;28;19942;-88
2022/11/20 08:41:45;;;;;;;;;;;0.50;85.80;;;;;;5035810;28;19947;-88
2022/11/20 08:44:14;;;;;;;;;;;0.50;85.80;;;;;;5032795;28;19924;-88
2022/11/20 08:46:46;;;;;;;;;;;0.60;85.80;;;;;;5039508;28;19913;-88
2022/11/20 08:49:13;;;;;;;;;;;0.60;85.80;;;;;;5032844;28;20456;-88
2022/11/20 08:52:10;;;;;;;;;;;0.70;86.00;;;;;;5046018;28;20369;-88
2022/11/20 08:54:57;;;;;;;;;;;0.80;86.20;;;;;;5008475;28;20055;-89
2022/11/20 08:57:23;;;;;;;;;;;0.90;86.10;;;;;;5033285;28;19913;-90
2022/11/20 08:59:48;;;;;;;;;;;0.90;86.20;;;;;;5026178;28;19921;-87
2022/11/20 09:02:15;;;;;;;;;;;1.00;86.20;;;;;;5032552;28;19925;-88
2022/11/20 09:05:16;;;;;;;;;;;1.10;86.30;;;;;;5032531;28;19949;-90
2022/11/20 09:07:41;;;;;;;;;;;1.10;86.20;;;;;;5022780;28;19914;-90
2022/11/20 09:10:13;;;;;;;;;;;1.20;86.30;;;;;;5038807;28;19949;-90
2022/11/20 09:12:38;;;;;;;;;;;1.30;86.40;;;;;;5051758;28;19913;-91
2022/11/20 09:15:33;;;;;;;;;;;1.30;86.20;;;;;;5052223;28;20381;-91
2022/11/20 09:21:24;;;;;;;;;;;1.40;86.40;;;;;;4920027;29;20053;-90
2022/11/20 09:24:36;;;;;;;;;;;;;;;;;;;;;
2022/11/20 09:27:03;;;;;;;;;;;1.60;86.50;;;;;;4897650;29;19922;-90
2022/11/20 09:29:29;;;;;;;;;;;1.80;86.50;;;;;;4961846;28;19956;-90
2022/11/20 09:31:54;;;;;;;;;;;1.90;86.20;;;;;;5034174;28;20561;-90
2022/11/20 09:34:20;;;;;;;;;;;1.90;86.60;;;;;;5032214;28;19990;-91
2022/11/20 09:36:45;;;;;;;;;;;2.00;86.50;;;;;;5029557;28;19920;-89
2022/11/20 09:39:10;;;;;;;;;;;2.00;86.50;;;;;;5031054;28;19909;-90
2022/11/20 09:41:45;;;;;;;;;;;2.10;85.40;;;;;;5028826;28;19977;-90
2022/11/20 09:44:27;;;;;;;;;;;2.10;85.70;;;;;;5041445;28;19914;-90
2022/11/20 09:47:01;;;;;;;;;;;2.20;84.10;;;;;;5044757;28;19913;-90
2022/11/20 09:49:30;;;;;;;;;;;2.30;83.80;;;;;;5033260;28;19959;-91
2022/11/20 09:51:59;;;;;;;;;;;2.40;83.70;;;;;;5029328;28;19910;-91
2022/11/20 09:54:37;;;;;;;;;;;2.50;83.80;;;;;;5027550;28;19931;-89
2022/11/20 09:57:21;;;;;;;;;;;2.60;83.40;;;;;;5030409;28;20050;-91
2022/11/20 09:59:53;;;;;;;;;;;2.60;83.10;;;;;;5046075;28;19916;-92
2022/11/20 10:03:03;;;;;;;;;;;2.80;82.30;;;;;;5053570;28;19917;-94
2022/11/20 10:05:40;;;;;;;;;;;2.80;82.50;;;;;;4934688;29;19915;-92
2022/11/20 10:08:29;;;;;;;;;;;3.00;81.50;;;;;;4925222;28;20416;-92
2022/11/20 10:14:30;;;;;;;;;;;3.30;79.30;;;;;;5022920;28;19983;-91
2022/11/20 10:17:47;;;;;;;;;;;3.60;78.90;;;;;;5011136;28;19924;-91
2022/11/20 10:29:21;;;;;;;;;;;4.00;75.80;;;;;;5028697;28;19913;-91
2022/11/20 10:32:21;;;;;;;;;;;4.10;75.30;;;;;;5021354;28;19909;-91
2022/11/20 10:34:57;;;;;;;;;;;4.30;74.90;;;;;;5045278;28;19921;-92
2022/11/20 10:40:50;;;;;;;;;;;4.30;74.80;;;;;;4985892;28;19991;-91
2022/11/20 10:46:30;;;;;;;;;;;4.40;74.90;;;;;;4954256;28;19976;-92
2022/11/20 10:55:40;;;;;;;;;;;4.90;74.80;;;;;;5016524;28;20290;-92
2022/11/20 11:01:26;;;;;;;;;;;5.20;72.60;;;;;;5022810;28;19948;-91
2022/11/20 11:04:10;;;;;;;;;;;5.20;72.30;;;;;;5029524;28;19909;-92
2022/11/20 11:06:43;;;;;;;;;;;5.10;73.40;;;;;;5034166;28;19924;-92
2022/11/20 11:12:42;;;;;;;;;;;5.00;72.60;;;;;;5032144;28;19967;-91
2022/11/20 11:19:29;;;;;;;;;;;;;;;;;;;;;
2022/11/20 11:21:43;;;;;;;;;;;4.90;73.20;;;;;;4983225;28;19929;-90
2022/11/20 11:28:03;;;;;;;;;;;4.80;73.40;;;;;;4975281;28;20068;-92
2022/11/20 11:34:05;;;;;;;;;;;4.70;73.90;;;;;;4967764;28;19921;-92
2022/11/20 11:36:32;;;;;;;;;;;4.50;74.30;;;;;;4988261;28;19967;-88
2022/11/20 11:38:58;;;;;;;;;;;4.60;75.10;;;;;;5026905;28;20008;-87
2022/11/20 11:41:27;;;;;;;;;;;4.70;75.00;;;;;;5028024;28;19958;-86
2022/11/20 11:47:00;;;;;;;;;;;4.80;74.80;;;;;;5029118;28;19967;-86
2022/11/20 11:49:25;;;;;;;;;;;5.00;74.00;;;;;;5027994;28;19917;-86
2022/11/20 11:52:01;;;;;;;;;;;5.10;74.60;;;;;;5020916;28;19916;-87
2022/11/20 11:54:42;;;;;;;;;;;5.10;74.10;;;;;;5027212;28;19925;-87
2022/11/20 11:57:17;;;;;;;;;;;5.00;73.30;;;;;;5032034;28;19917;-86
2022/11/20 11:59:47;;;;;;;;;;;4.90;73.30;;;;;;5021618;28;19913;-86
2022/11/20 12:02:23;;;;;;;;;;;4.90;73.80;;;;;;5029889;28;19955;-86
2022/11/20 12:04:52;;;;;;;;;;;4.80;74.20;;;;;;5030338;28;19913;-86
2022/11/20 12:07:38;;;;;;;;;;;4.90;74.10;;;;;;5039084;28;19921;-87
2022/11/20 12:10:04;;;;;;;;;;;5.00;73.60;;;;;;5046553;28;20272;-86
2022/11/20 12:12:50;;;;;;;;;;;5.10;74.60;;;;;;5037756;28;19925;-87
2022/11/20 12:15:22;;;;;;;;;;;5.30;75.20;;;;;;5025270;28;19917;-87
2022/11/20 12:17:48;;;;;;;;;;;5.30;73.70;;;;;;5030669;28;19913;-87
2022/11/20 12:20:14;;;;;;;;;;;5.30;73.80;;;;;;5018445;28;19920;-86
2022/11/20 12:22:58;;;;;;;;;;;5.10;72.80;;;;;;5026530;28;19913;-86
2022/11/20 12:25:35;;;;;;;;;;;4.90;72.90;;;;;;5028335;28;19913;-86
2022/11/20 12:28:10;;;;;;;;;;;4.80;75.00;;;;;;5034197;28;19920;-86
2022/11/20 12:30:41;;;;;;;;;;;4.70;74.70;;;;;;5022104;28;19920;-87
2022/11/20 12:33:16;;;;;;;;;;;4.90;75.40;;;;;;5014090;28;19913;-86
2022/11/20 12:35:41;;;;;;;;;;;4.90;75.10;;;;;;5047051;28;20000;-86
2022/11/20 12:38:13;;;;;;;;;;;5.10;74.10;;;;;;5031089;28;20010;-86
2022/11/20 12:40:47;;;;;;;;;;;5.00;74.50;;;;;;5023008;28;20391;-87
2022/11/20 12:46:10;;;;;;;;;;;4.80;74.90;;;;;;5026822;28;19967;-86
2022/11/20 12:48:42;;;;;;;;;;;4.80;74.20;;;;;;5043759;28;19941;-87
2022/11/20 12:51:14;;;;;;;;;;;4.70;74.70;;;;;;5030196;28;19913;-86
2022/11/20 12:53:43;;;;;;;;;;;4.70;74.90;;;;;;5039137;28;19917;-86
2022/11/20 12:56:11;;;;;;;;;;;4.70;75.50;;;;;;5030220;28;19937;-86
2022/11/20 12:58:43;;;;;;;;;;;4.60;75.60;;;;;;5035129;28;19918;-87
2022/11/20 13:01:39;;;;;;;;;;;4.60;75.40;;;;;;5046328;28;19916;-86
2022/11/20 13:04:23;;;;;;;;;;;4.60;76.20;;;;;;5036377;28;19925;-87
2022/11/20 13:06:50;;;;;;;;;;;4.60;76.40;;;;;;5038526;28;19913;-87
2022/11/20 13:09:17;;;;;;;;;;;4.50;76.30;;;;;;5032996;28;19925;-87
2022/11/20 13:12:15;;;;;;;;;;;4.50;76.50;;;;;;5017956;28;19909;-87
2022/11/20 13:14:45;;;;;;;;;;;4.60;76.80;;;;;;4993824;28;20008;-87
2022/11/20 13:17:19;;;;;;;;;;;4.60;75.60;;;;;;5034508;28;19913;-86
2022/11/20 13:19:53;;;;;;;;;;;4.50;76.10;;;;;;5028314;28;20024;-87
2022/11/20 13:22:29;;;;;;;;;;;4.40;75.80;;;;;;5030446;28;19910;-87
2022/11/20 13:24:54;;;;;;;;;;;4.50;76.40;;;;;;5033147;28;19995;-87
2022/11/20 13:27:23;;;;;;;;;;;4.50;76.30;;;;;;5056963;28;20180;-86
2022/11/20 13:30:00;;;;;;;;;;;4.50;75.90;;;;;;5034576;28;19913;-86
2022/11/20 13:32:25;;;;;;;;;;;4.40;75.80;;;;;;5043749;28;19921;-86
2022/11/20 13:34:55;;;;;;;;;;;4.50;76.40;;;;;;5030501;28;20341;-87
2022/11/20 13:37:26;;;;;;;;;;;4.60;75.50;;;;;;5031905;28;19917;-86
2022/11/20 13:39:51;;;;;;;;;;;4.60;76.60;;;;;;5029729;28;19913;-87
2022/11/20 13:42:23;;;;;;;;;;;4.70;77.10;;;;;;5024543;28;19913;-88
2022/11/20 13:44:54;;;;;;;;;;;4.80;76.50;;;;;;5027476;28;19917;-89
2022/11/20 13:47:21;;;;;;;;;;;4.90;75.50;;;;;;5034809;28;20051;-89
2022/11/20 13:49:48;;;;;;;;;;;5.00;75.50;;;;;;5034428;28;20291;-89
2022/11/20 13:52:32;;;;;;;;;;;5.00;75.70;;;;;;5025706;28;19925;-89
2022/11/20 13:55:16;;;;;;;;;;;5.00;75.00;;;;;;5051511;28;20011;-89
2022/11/20 13:58:05;;;;;;;;;;;4.80;74.50;;;;;;5043348;28;19914;-89
2022/11/20 14:00:30;;;;;;;;;;;4.80;74.50;;;;;;5013362;28;20428;-89
2022/11/20 14:03:17;;;;;;;;;;;4.90;74.60;;;;;;5046016;28;19909;-90
2022/11/20 14:05:59;;;;;;;;;;;4.90;75.10;;;;;;5015418;28;19917;-89
2022/11/20 14:08:30;;;;;;;;;;;4.80;74.00;;;;;;5039462;28;19917;-89
2022/11/20 14:11:15;;;;;;;;;;;4.70;74.40;;;;;;5035527;28;19917;-89
2022/11/20 14:13:51;;;;;;;;;;;4.60;75.00;;;;;;5025324;28;19925;-89
2022/11/20 14:16:19;;;;;;;;;;;4.60;75.90;;;;;;5032186;28;19944;-89
2022/11/20 14:18:45;;;;;;;;;;;4.60;76.00;;;;;;5034625;28;19940;-89
2022/11/20 14:21:10;;;;;;;;;;;4.60;75.80;;;;;;5034406;28;20363;-89
2022/11/20 14:23:35;;;;;;;;;;;4.50;75.80;;;;;;5029149;28;19909;-89
2022/11/20 14:26:01;;;;;;;;;;;4.40;76.60;;;;;;5040686;28;20396;-89
2022/11/20 14:28:28;;;;;;;;;;;4.40;76.80;;;;;;5033929;28;19932;-90
2022/11/20 14:30:54;;;;;;;;;;;4.40;77.30;;;;;;5029128;28;19959;-90
2022/11/20 14:33:24;;;;;;;;;;;4.50;77.50;;;;;;5034969;28;19909;-89
2022/11/20 14:35:51;;;;;;;;;;;4.50;77.30;;;;;;5032390;28;20000;-90
2022/11/20 14:38:19;;;;;;;;;;;4.50;78.00;;;;;;5037483;28;20357;-90
2022/11/20 14:40:45;;;;;;;;;;;4.50;77.80;;;;;;5028851;28;19914;-90
2022/11/20 14:43:18;;;;;;;;;;;4.50;77.50;;;;;;5032342;28;20454;-89
2022/11/20 14:45:52;;;;;;;;;;;4.50;77.70;;;;;;5021695;28;19914;-90
2022/11/20 14:48:20;;;;;;;;;;;4.50;77.80;;;;;;5015509;28;19913;-90
2022/11/20 14:50:45;;;;;;;;;;;4.40;77.70;;;;;;5049105;28;19917;-90
2022/11/20 14:53:24;;;;;;;;;;;4.40;78.10;;;;;;5039953;28;20000;-90
2022/11/20 14:56:00;;;;;;;;;;;4.50;77.30;;;;;;5033950;28;19959;-90
2022/11/20 14:58:29;;;;;;;;;;;4.50;77.80;;;;;;5030242;28;19921;-90
2022/11/20 15:00:59;;;;;;;;;;;4.40;77.80;;;;;;5023366;28;20011;-90
2022/11/20 15:03:32;;;;;;;;;;;4.40;78.10;;;;;;5022221;28;20524;-90
2022/11/20 15:05:57;;;;;;;;;;;4.50;78.00;;;;;;5019690;28;19923;-90
2022/11/20 15:08:23;;;;;;;;;;;4.40;77.90;;;;;;5061889;28;19898;-94
2022/11/20 15:10:49;;;;;;;;;;;4.40;78.30;;;;;;5046556;28;19909;-89
2022/11/20 15:13:17;;;;;;;;;;;4.30;78.70;;;;;;5045575;28;19957;-90
2022/11/20 15:15:47;;;;;;;;;;;4.40;79.40;;;;;;5030907;28;19909;-90
2022/11/20 15:18:18;;;;;;;;;;;4.40;79.90;;;;;;5016982;28;19917;-90
2022/11/20 15:20:45;;;;;;;;;;;4.30;80.10;;;;;;5028788;28;19956;-89
2022/11/20 15:23:12;;;;;;;;;;;4.30;80.50;;;;;;5031459;28;20374;-90
2022/11/20 15:25:38;;;;;;;;;;;4.30;80.70;;;;;;5033581;28;20370;-90
2022/11/20 15:28:04;;;;;;;;;;;4.30;80.80;;;;;;5050790;28;19913;-90
2022/11/20 15:30:32;;;;;;;;;;;4.30;80.90;;;;;;5037023;28;19945;-87
2022/11/20 15:32:58;;;;;;;;;;;4.30;80.90;;;;;;5044151;28;20000;-88
2022/11/20 15:35:24;;;;;;;;;;;4.30;80.70;;;;;;5027297;28;20159;-90